Time;durP1;ratioP1;P1;durP2;ratioP2;P2;SDS_P1;SDS_P2;PMS_P1;PMS_P2;Temp;Humidity;BMP_temperature;BMP_pressure;BME280_temperature;BME280_humidity;BME280_pressure;Samples;Min_cycle;Max_cycle;Signal;HPM_P1;HPM_P2
2021/06/24 00:25:33;;;;;;;27.40;10.80;;;;;;;;;;5054087;28;20387;-60
2021/06/24 00:28:02;;;;;;;34.75;12.55;;;;;;;;;;5038367;28;20042;-60
2021/06/24 00:30:28;;;;;;;35.15;11.88;;;;;;;;;;5032015;28;20045;-60
2021/06/24 01:25:33;;;;;;;32.13;10.55;;;;;;;;;;5049222;28;20384;-59
2021/06/24 01:28:07;;;;;;;51.00;15.80;;;;;;;;;;5051060;28;20057;-59
2021/06/24 01:30:37;;;;;;;40.55;15.32;;;;;;;;;;5052046;28;20577;-59
2021/06/24 01:33:05;;;;;;;49.75;16.13;;;;;;;;;;5047681;28;20048;-60
2021/06/24 01:35:32;;;;;;;37.58;13.80;;;;;;;;;;5046425;28;20053;-60
2021/06/24 01:38:01;;;;;;;42.60;13.57;;;;;;;;;;5045800;28;20566;-60
2021/06/24 01:40:29;;;;;;;33.70;14.48;;;;;;;;;;5042869;28;20045;-60
2021/06/24 06:26:40;;;;;;;13.77;4.10;;;;;;;;;;5051969;28;20424;-60
2021/06/24 06:29:20;;;;;;;12.10;3.85;;;;;;;;;;5056637;28;20123;-60
2021/06/24 06:31:46;;;;;;;8.63;3.88;;;;;;;;;;5055714;28;20057;-60
2021/06/24 06:34:14;;;;;;;8.82;3.58;;;;;;;;;;5058574;28;20049;-60
2021/06/24 07:27:35;;;;;;;12.25;3.45;;;;;;;;;;5057012;28;20951;-60
2021/06/24 07:30:04;;;;;;;8.13;3.20;;;;;;;;;;5054739;28;20038;-61
2021/06/24 07:32:30;;;;;;;;;;;;;;;;;;5056554;28;20457;-60
2021/06/24 07:34:57;;;;;;;7.53;3.20;;;;;;;;;;5060025;28;19929;-61
2021/06/24 07:37:23;;;;;;;8.10;3.70;;;;;;;;;;5053349;28;20047;-60
2021/06/24 07:39:51;;;;;;;8.50;3.13;;;;;;;;;;5062043;28;20036;-60
2021/06/24 07:42:19;;;;;;;8.23;3.33;;;;;;;;;;5056093;28;20079;-60
2021/06/24 07:44:48;;;;;;;17.45;3.67;;;;;;;;;;5039986;28;20342;-60
2021/06/24 07:47:18;;;;;;;6.93;2.92;;;;;;;;;;5036579;28;20589;-58
2021/06/24 07:49:46;;;;;;;9.27;3.13;;;;;;;;;;5041241;28;20041;-58
2021/06/24 07:52:13;;;;;;;8.27;3.45;;;;;;;;;;5037675;28;20045;-58
2021/06/24 07:54:39;;;;;;;5.47;3.03;;;;;;;;;;5037317;28;20041;-58
2021/06/24 07:57:06;;;;;;;9.98;3.30;;;;;;;;;;5044511;28;20057;-58
2021/06/24 07:59:34;;;;;;;7.65;3.17;;;;;;;;;;5039141;28;20095;-59
2021/06/24 08:02:01;;;;;;;11.30;3.40;;;;;;;;;;5038481;28;20512;-58
2021/06/24 08:04:28;;;;;;;6.47;3.00;;;;;;;;;;5033431;28;20516;-58
2021/06/24 08:06:56;;;;;;;8.32;2.88;;;;;;;;;;5040324;28;20659;-58
2021/06/24 08:09:23;;;;;;;6.95;2.95;;;;;;;;;;5035530;28;20467;-58
2021/06/24 08:11:49;;;;;;;12.43;3.10;;;;;;;;;;5032150;28;20501;-58
2021/06/24 08:14:17;;;;;;;8.05;2.92;;;;;;;;;;5039570;28;20045;-58
2021/06/24 08:16:43;;;;;;;7.53;3.30;;;;;;;;;;5037710;28;20501;-58
2021/06/24 08:19:10;;;;;;;10.50;3.30;;;;;;;;;;5033374;28;20383;-58
2021/06/24 08:21:37;;;;;;;6.72;2.95;;;;;;;;;;5055634;28;20054;-58
2021/06/24 08:24:06;;;;;;;7.18;3.42;;;;;;;;;;5038791;28;20048;-58
2021/06/24 08:26:32;;;;;;;5.73;2.60;;;;;;;;;;5039339;28;20054;-58
2021/06/24 08:28:59;;;;;;;8.00;3.03;;;;;;;;;;5034720;28;20619;-58
2021/06/24 08:31:26;;;;;;;7.85;3.08;;;;;;;;;;5036937;28;20058;-58
2021/06/24 08:33:53;;;;;;;11.13;2.75;;;;;;;;;;5039609;28;20053;-58
2021/06/24 08:36:20;;;;;;;;;;;;;;;;;;5038473;28;20044;-58
2021/06/24 08:38:47;;;;;;;6.13;2.60;;;;;;;;;;5023425;28;19921;-58
2021/06/24 08:41:15;;;;;;;7.18;2.60;;;;;;;;;;5025253;28;20453;-58
2021/06/24 08:43:42;;;;;;;6.93;3.15;;;;;;;;;;5020526;28;20051;-58
2021/06/24 08:46:08;;;;;;;10.80;3.00;;;;;;;;;;5022380;28;20055;-58
2021/06/24 08:48:36;;;;;;;4.82;2.80;;;;;;;;;;5022570;28;20506;-58
2021/06/24 08:51:04;;;;;;;7.05;2.97;;;;;;;;;;5023815;28;20065;-58
2021/06/24 08:53:32;;;;;;;8.52;2.92;;;;;;;;;;5059049;28;20053;-58
2021/06/24 08:55:59;;;;;;;6.57;2.80;;;;;;;;;;5021736;28;20041;-58
2021/06/24 08:58:26;;;;;;;8.70;2.90;;;;;;;;;;5018286;28;20131;-58
2021/06/24 09:00:53;;;;;;;6.70;2.97;;;;;;;;;;5024167;28;20042;-58
2021/06/24 09:03:23;;;;;;;7.72;3.20;;;;;;;;;;5028165;28;20066;-58
2021/06/24 09:06:00;;;;;;;6.90;3.03;;;;;;;;;;5026574;28;20501;-58
2021/06/24 09:08:35;;;;;;;5.38;2.75;;;;;;;;;;5026771;28;20398;-59
2021/06/24 09:11:06;;;;;;;4.78;2.50;;;;;;;;;;5018131;28;20038;-58
2021/06/24 09:13:34;;;;;;;9.02;3.00;;;;;;;;;;5023279;28;20065;-58
2021/06/24 09:16:04;;;;;;;10.95;2.90;;;;;;;;;;5024636;28;20037;-58
2021/06/24 09:18:31;;;;;;;5.25;2.63;;;;;;;;;;5023521;28;20092;-58
2021/06/24 09:21:15;;;;;;;8.23;3.03;;;;;;;;;;5021453;28;20053;-59
2021/06/24 09:23:42;;;;;;;7.65;2.72;;;;;;;;;;5019710;28;20046;-58
2021/06/24 09:26:14;;;;;;;6.35;2.53;;;;;;;;;;5028678;28;20479;-58
2021/06/24 09:28:42;;;;;;;5.55;2.42;;;;;;;;;;5026311;28;20413;-58
2021/06/24 09:31:22;;;;;;;7.93;2.88;;;;;;;;;;5025696;28;20044;-58
2021/06/24 09:33:49;;;;;;;14.63;2.88;;;;;;;;;;5025378;28;20041;-58
2021/06/24 09:36:37;;;;;;;4.78;2.33;;;;;;;;;;5025260;28;20042;-58
2021/06/24 09:39:05;;;;;;;6.97;2.10;;;;;;;;;;5023410;28;20045;-58
2021/06/24 09:41:32;;;;;;;6.07;2.47;;;;;;;;;;5024649;28;20049;-59
2021/06/24 09:44:18;;;;;;;7.03;2.28;;;;;;;;;;5023900;28;20053;-59
2021/06/24 09:46:45;;;;;;;9.30;2.65;;;;;;;;;;5026504;28;20512;-58
2021/06/24 09:49:37;;;;;;;7.18;2.20;;;;;;;;;;5018055;28;20045;-59
2021/06/24 09:52:05;;;;;;;4.47;2.35;;;;;;;;;;5020738;28;20143;-58
2021/06/24 09:54:43;;;;;;;5.93;2.20;;;;;;;;;;5016899;28;20046;-58
2021/06/24 09:57:21;;;;;;;4.32;2.55;;;;;;;;;;5028262;28;20104;-58
2021/06/24 09:59:49;;;;;;;8.85;2.55;;;;;;;;;;5021334;28;20056;-59
2021/06/24 10:02:18;;;;;;;6.80;2.00;;;;;;;;;;5022329;28;20048;-59
2021/06/24 10:04:45;;;;;;;6.03;2.75;;;;;;;;;;5018669;28;20469;-59
2021/06/24 10:07:14;;;;;;;17.23;3.35;;;;;;;;;;5021286;28;20041;-58
2021/06/24 10:09:47;;;;;;;13.48;2.58;;;;;;;;;;5028709;28;20155;-59
2021/06/24 10:12:15;;;;;;;10.20;3.00;;;;;;;;;;5024278;28;20084;-59
2021/06/24 10:14:43;;;;;;;4.75;2.08;;;;;;;;;;5020915;28;20060;-58
2021/06/24 10:17:09;;;;;;;;;;;;;;;;;;5025255;28;20054;-59
2021/06/24 10:19:37;;;;;;;4.22;2.22;;;;;;;;;;5024600;28;20370;-59
2021/06/24 10:22:24;;;;;;;6.65;2.20;;;;;;;;;;5022174;28;20068;-58
2021/06/24 10:25:02;;;;;;;7.05;2.20;;;;;;;;;;5019176;28;20049;-58
2021/06/24 10:27:31;;;;;;;3.95;2.22;;;;;;;;;;5023318;28;20468;-59
2021/06/24 10:30:07;;;;;;;3.53;2.08;;;;;;;;;;5024817;28;20076;-59
2021/06/24 10:32:34;;;;;;;6.75;2.90;;;;;;;;;;5026380;28;20489;-59
2021/06/24 10:35:06;;;;;;;14.63;3.17;;;;;;;;;;5027275;28;20120;-59
2021/06/24 10:37:33;;;;;;;9.07;2.88;;;;;;;;;;5020118;28;20526;-59
2021/06/24 10:40:02;;;;;;;10.50;3.45;;;;;;;;;;5021235;28;20042;-59
2021/06/24 10:42:29;;;;;;;8.20;3.33;;;;;;;;;;5021379;28;20046;-59
2021/06/24 10:44:57;;;;;;;7.65;3.45;;;;;;;;;;5023855;28;20144;-59
2021/06/24 10:47:32;;;;;;;56.72;5.28;;;;;;;;;;5019326;28;20252;-59
2021/06/24 10:50:17;;;;;;;8.80;3.25;;;;;;;;;;5021993;28;20512;-59
2021/06/24 10:52:44;;;;;;;6.45;3.03;;;;;;;;;;5021531;28;20045;-59
2021/06/24 10:55:30;;;;;;;7.18;3.63;;;;;;;;;;5025706;28;20583;-59
2021/06/24 10:57:58;;;;;;;5.20;2.63;;;;;;;;;;5012862;28;20042;-59
2021/06/24 11:00:44;;;;;;;7.32;3.20;;;;;;;;;;5016923;28;20045;-59
2021/06/24 11:03:16;;;;;;;5.60;2.83;;;;;;;;;;5023915;28;20055;-59
2021/06/24 11:05:47;;;;;;;6.13;3.15;;;;;;;;;;5025174;28;20046;-59
2021/06/24 11:08:16;;;;;;;9.85;4.00;;;;;;;;;;5024606;28;20113;-59
2021/06/24 11:10:50;;;;;;;11.43;3.70;;;;;;;;;;5024192;28;20035;-59
2021/06/24 11:13:35;;;;;;;10.95;4.10;;;;;;;;;;5019770;28;20038;-59
2021/06/24 11:16:05;;;;;;;6.43;3.50;;;;;;;;;;5023183;28;20041;-59
2021/06/24 11:18:32;;;;;;;10.43;3.70;;;;;;;;;;5024525;28;20073;-59
2021/06/24 11:21:00;;;;;;;9.73;3.70;;;;;;;;;;5020882;28;20051;-59
2021/06/24 11:23:29;;;;;;;13.10;4.70;;;;;;;;;;5023409;28;20048;-59
2021/06/24 11:26:13;;;;;;;10.05;4.03;;;;;;;;;;5021971;28;20069;-59
2021/06/24 11:28:54;;;;;;;7.35;4.28;;;;;;;;;;5024006;28;20041;-59
2021/06/24 11:37:00;;;;;;;13.75;4.18;;;;;;;;;;5025480;28;20045;-59
2021/06/24 11:39:32;;;;;;;14.05;3.72;;;;;;;;;;5024146;28;20501;-59
2021/06/24 11:42:04;;;;;;;14.20;4.90;;;;;;;;;;5018655;28;20045;-60
2021/06/24 11:44:32;;;;;;;14.60;4.60;;;;;;;;;;5023321;28;20037;-59
2021/06/24 11:46:59;;;;;;;9.63;4.43;;;;;;;;;;5020148;28;20158;-59
2021/06/24 12:03:54;;;;;;;10.32;4.25;;;;;;;;;;5019597;28;20037;-59
2021/06/24 12:06:20;;;;;;;4.63;3.25;;;;;;;;;;5028219;28;20044;-59
2021/06/24 12:08:56;;;;;;;11.20;4.40;;;;;;;;;;5018779;28;20041;-59
2021/06/24 12:11:32;;;;;;;6.95;3.70;;;;;;;;;;5022846;28;20045;-59
2021/06/24 12:14:12;;;;;;;16.50;4.05;;;;;;;;;;5026381;28;20045;-59
2021/06/24 12:16:40;;;;;;;8.32;3.60;;;;;;;;;;5023164;28;20060;-59
2021/06/24 12:19:06;;;;;;;8.00;4.07;;;;;;;;;;5030722;28;20033;-60
2021/06/24 12:21:33;;;;;;;9.32;3.53;;;;;;;;;;5025644;28;20103;-59
2021/06/24 12:24:00;;;;;;;9.45;3.30;;;;;;;;;;5029023;28;20041;-59
2021/06/24 12:26:27;;;;;;;7.90;3.27;;;;;;;;;;5023992;28;20061;-59
2021/06/24 12:29:00;;;;;;;10.60;4.05;;;;;;;;;;5026912;28;20293;-60
2021/06/24 12:31:28;;;;;;;5.95;3.35;;;;;;;;;;5024468;28;20092;-60
2021/06/24 12:34:02;;;;;;;8.18;4.20;;;;;;;;;;5022070;28;20046;-59
2021/06/24 12:36:34;;;;;;;7.70;3.83;;;;;;;;;;5021889;28;20099;-59
2021/06/24 12:39:03;;;;;;;14.50;3.78;;;;;;;;;;5027446;28;20049;-60
2021/06/24 12:41:31;;;;;;;7.78;3.53;;;;;;;;;;5022275;28;20052;-60
2021/06/24 12:43:59;;;;;;;7.25;3.83;;;;;;;;;;5028195;28;20057;-59
2021/06/24 12:46:30;;;;;;;7.57;3.78;;;;;;;;;;5027550;28;20731;-59
2021/06/24 12:49:02;;;;;;;8.52;3.97;;;;;;;;;;5026927;28;20037;-59
2021/06/24 12:51:37;;;;;;;9.77;3.60;;;;;;;;;;5027020;28;20081;-60
2021/06/24 12:54:17;;;;;;;8.93;4.30;;;;;;;;;;5025411;28;20566;-60
2021/06/24 12:56:45;;;;;;;10.07;4.13;;;;;;;;;;5022070;28;20037;-59
2021/06/24 12:59:15;;;;;;;6.68;3.85;;;;;;;;;;5027448;28;20049;-59
2021/06/24 13:01:43;;;;;;;9.70;4.13;;;;;;;;;;5022685;28;20038;-59
2021/06/24 13:04:19;;;;;;;8.57;3.83;;;;;;;;;;5017771;28;20041;-60
2021/06/24 13:06:47;;;;;;;9.52;4.45;;;;;;;;;;5038734;28;20525;-60
2021/06/24 13:09:15;;;;;;;12.27;4.57;;;;;;;;;;5025680;28;20048;-60
2021/06/24 13:11:44;;;;;;;11.98;4.38;;;;;;;;;;5026187;28;20104;-60
2021/06/24 13:14:15;;;;;;;10.13;4.53;;;;;;;;;;5031592;28;20053;-60
2021/06/24 13:16:46;;;;;;;11.80;5.13;;;;;;;;;;5025103;28;20046;-59
2021/06/24 13:19:27;;;;;;;8.63;3.83;;;;;;;;;;5026170;28;20449;-59
2021/06/24 13:21:56;;;;;;;11.50;3.97;;;;;;;;;;5019176;28;20042;-59
2021/06/24 13:24:23;;;;;;;15.95;4.70;;;;;;;;;;5021299;28;20047;-59
2021/06/24 13:26:50;;;;;;;;;;;;;;;;;;5022076;28;20069;-59
2021/06/24 13:29:19;;;;;;;9.77;3.90;;;;;;;;;;5023803;28;19921;-60
2021/06/24 13:31:52;;;;;;;8.98;4.43;;;;;;;;;;5018105;28;20129;-60
2021/06/24 13:34:19;;;;;;;9.77;4.40;;;;;;;;;;5023862;28;20042;-59
2021/06/24 13:36:46;;;;;;;6.68;3.85;;;;;;;;;;5022710;28;20540;-59
2021/06/24 13:39:15;;;;;;;11.13;3.78;;;;;;;;;;5023087;28;20049;-59
2021/06/24 13:41:45;;;;;;;9.23;3.80;;;;;;;;;;5017680;28;20048;-59
2021/06/24 13:44:18;;;;;;;10.02;4.32;;;;;;;;;;5019494;28;20633;-60
2021/06/24 13:46:50;;;;;;;7.35;3.58;;;;;;;;;;5020914;28;20057;-60
2021/06/24 13:49:18;;;;;;;11.90;4.25;;;;;;;;;;5026730;28;20053;-59
2021/06/24 13:51:47;;;;;;;11.68;4.47;;;;;;;;;;5021721;28;20048;-60
2021/06/24 13:54:16;;;;;;;9.52;4.45;;;;;;;;;;5022971;28;20037;-60
2021/06/24 13:56:43;;;;;;;7.38;4.00;;;;;;;;;;5022472;28;20047;-60
2021/06/24 13:59:10;;;;;;;9.13;4.20;;;;;;;;;;5025576;28;20050;-59
2021/06/24 14:01:36;;;;;;;12.05;4.30;;;;;;;;;;5021751;28;20041;-60
2021/06/24 14:04:05;;;;;;;8.90;4.13;;;;;;;;;;5024170;28;20054;-59
2021/06/24 14:06:35;;;;;;;8.77;3.88;;;;;;;;;;5024772;28;20433;-59
2021/06/24 14:09:08;;;;;;;8.15;4.13;;;;;;;;;;5024962;28;20053;-60
2021/06/24 14:11:38;;;;;;;7.50;4.00;;;;;;;;;;5027038;28;20046;-59
2021/06/24 14:14:05;;;;;;;8.60;4.30;;;;;;;;;;5022172;28;20068;-60
2021/06/24 14:16:33;;;;;;;9.40;3.50;;;;;;;;;;5024881;28;20566;-59
2021/06/24 14:19:16;;;;;;;8.75;3.78;;;;;;;;;;5024666;28;20049;-60
2021/06/24 14:21:43;;;;;;;9.95;3.90;;;;;;;;;;5024159;28;20092;-60
2021/06/24 14:24:09;;;;;;;6.37;3.23;;;;;;;;;;5019231;28;20056;-60
2021/06/24 14:26:37;;;;;;;;;;;;;;;;;;5029705;28;20387;-60
2021/06/24 14:29:04;;;;;;;6.63;3.90;;;;;;;;;;5027694;28;20479;-60
2021/06/24 14:31:37;;;;;;;10.05;3.83;;;;;;;;;;5023295;28;20103;-59
2021/06/24 14:34:03;;;;;;;7.43;3.63;;;;;;;;;;5024488;28;20121;-60
2021/06/24 14:36:31;;;;;;;7.90;4.10;;;;;;;;;;5021169;28;20152;-59
2021/06/24 14:38:57;;;;;;;;;;;;;;;;;;5017118;28;20301;-59
2021/06/24 14:41:25;;;;;;;6.20;3.20;;;;;;;;;;5027597;28;20019;-59
2021/06/24 14:43:51;;;;;;;;;;;;;;;;;;5024951;28;20045;-60
2021/06/24 14:46:19;;;;;;;6.38;3.80;;;;;;;;;;5021422;28;19960;-59
2021/06/24 14:48:46;;;;;;;8.20;4.10;;;;;;;;;;5025902;28;20046;-59
2021/06/24 14:51:13;;;;;;;;;;;;;;;;;;5026211;28;20033;-60
2021/06/24 14:53:40;;;;;;;7.88;4.15;;;;;;;;;;5024840;28;19929;-60
2021/06/24 14:56:07;;;;;;;7.95;4.03;;;;;;;;;;5026894;28;20041;-59
2021/06/24 14:58:33;;;;;;;12.70;4.13;;;;;;;;;;5027720;28;20048;-60
2021/06/24 15:01:01;;;;;;;;;;;;;;;;;;5032063;28;20531;-60
2021/06/24 15:03:28;;;;;;;9.35;4.07;;;;;;;;;;5026500;28;19975;-60
2021/06/24 15:05:54;;;;;;;6.55;3.83;;;;;;;;;;5022478;28;20050;-59
2021/06/24 15:08:21;;;;;;;6.70;4.00;;;;;;;;;;5020010;28;20044;-59
2021/06/24 15:10:50;;;;;;;12.43;3.90;;;;;;;;;;5023122;28;20044;-60
2021/06/24 15:13:16;;;;;;;10.63;3.72;;;;;;;;;;5022558;28;20050;-60
2021/06/24 15:15:43;;;;;;;7.53;3.60;;;;;;;;;;5027173;28;20038;-59
2021/06/24 15:18:10;;;;;;;7.65;3.30;;;;;;;;;;5026839;28;20033;-59
2021/06/24 15:20:37;;;;;;;6.40;3.45;;;;;;;;;;5026730;28;20049;-59
2021/06/24 15:23:04;;;;;;;9.02;3.47;;;;;;;;;;5024621;28;20117;-60
2021/06/24 15:25:30;;;;;;;5.77;3.10;;;;;;;;;;5016552;28;20108;-60
2021/06/24 15:27:58;;;;;;;6.50;3.25;;;;;;;;;;5019319;28;20128;-59
2021/06/24 15:30:26;;;;;;;17.42;3.28;;;;;;;;;;5021808;28;20088;-59
2021/06/24 15:32:55;;;;;;;10.05;3.35;;;;;;;;;;5023032;28;20041;-59
2021/06/24 15:35:22;;;;;;;12.57;4.00;;;;;;;;;;5026585;28;20041;-59
2021/06/24 15:37:49;;;;;;;5.90;3.38;;;;;;;;;;5025261;28;20045;-59
2021/06/24 15:40:17;;;;;;;12.38;3.45;;;;;;;;;;5021676;28;20041;-59
2021/06/24 15:42:46;;;;;;;9.02;3.80;;;;;;;;;;5020972;28;20049;-59
2021/06/24 15:45:15;;;;;;;5.22;3.10;;;;;;;;;;5018952;28;20058;-59
2021/06/24 15:47:42;;;;;;;13.25;3.20;;;;;;;;;;5022843;28;20042;-60
2021/06/24 15:50:10;;;;;;;4.63;2.90;;;;;;;;;;5033173;28;20077;-59
2021/06/24 15:52:37;;;;;;;6.22;3.08;;;;;;;;;;5028320;28;20075;-60
2021/06/24 15:55:03;;;;;;;6.53;3.47;;;;;;;;;;5029044;28;20061;-59
2021/06/24 15:57:30;;;;;;;9.90;3.83;;;;;;;;;;5025532;28;20045;-59
2021/06/24 15:59:57;;;;;;;7.93;3.83;;;;;;;;;;5020101;28;20038;-59
2021/06/24 16:02:23;;;;;;;8.82;4.13;;;;;;;;;;5025598;28;20288;-60
2021/06/24 16:04:50;;;;;;;11.45;3.60;;;;;;;;;;5030547;28;20679;-59
2021/06/24 16:07:17;;;;;;;6.43;3.60;;;;;;;;;;5024564;28;20393;-59
2021/06/24 16:09:44;;;;;;;10.77;3.90;;;;;;;;;;5025591;28;20061;-59
2021/06/24 16:12:10;;;;;;;6.18;3.90;;;;;;;;;;5031230;28;20436;-59
2021/06/24 16:14:37;;;;;;;7.65;3.55;;;;;;;;;;5028653;28;20095;-60
2021/06/24 16:17:05;;;;;;;11.20;3.97;;;;;;;;;;5031068;28;20434;-59
2021/06/24 16:19:31;;;;;;;5.57;3.58;;;;;;;;;;5024318;28;20080;-59
2021/06/24 16:22:00;;;;;;;11.48;4.15;;;;;;;;;;5019633;28;20123;-59
2021/06/24 16:24:26;;;;;;;5.22;3.40;;;;;;;;;;5022391;28;20050;-59
2021/06/24 16:26:53;;;;;;;7.43;3.78;;;;;;;;;;5020251;28;20037;-59
2021/06/24 16:29:20;;;;;;;11.23;4.47;;;;;;;;;;5027865;28;20041;-59
2021/06/24 16:31:47;;;;;;;5.60;4.00;;;;;;;;;;5025056;28;20085;-59
2021/06/24 16:34:13;;;;;;;6.85;4.70;;;;;;;;;;5024840;28;20046;-59
2021/06/24 16:36:40;;;;;;;9.23;4.20;;;;;;;;;;5026169;28;20037;-59
2021/06/24 16:39:08;;;;;;;9.15;4.93;;;;;;;;;;5029747;28;20125;-59
2021/06/24 16:41:37;;;;;;;6.70;4.97;;;;;;;;;;5026420;28;20045;-59
2021/06/24 16:44:08;;;;;;;5.10;3.92;;;;;;;;;;5026866;28;20044;-59
2021/06/24 16:46:36;;;;;;;10.45;5.50;;;;;;;;;;5023056;28;20515;-59
2021/06/24 16:49:03;;;;;;;7.82;4.97;;;;;;;;;;5027074;28;20033;-59
2021/06/24 16:51:30;;;;;;;8.50;4.82;;;;;;;;;;5029905;28;20045;-59
2021/06/24 16:54:05;;;;;;;5.68;4.55;;;;;;;;;;5027931;28;20049;-59
2021/06/24 16:56:32;;;;;;;6.80;4.60;;;;;;;;;;5030347;28;20046;-59
2021/06/24 16:58:59;;;;;;;8.30;5.13;;;;;;;;;;5027636;28;20048;-59
2021/06/24 17:01:25;;;;;;;8.75;5.20;;;;;;;;;;5022033;28;21069;-59
2021/06/24 17:03:52;;;;;;;8.32;5.07;;;;;;;;;;5024211;28;20064;-59
2021/06/24 17:06:19;;;;;;;8.50;5.20;;;;;;;;;;5025891;28;20095;-59
2021/06/24 17:08:46;;;;;;;6.85;4.57;;;;;;;;;;5022435;28;20052;-59
2021/06/24 17:11:13;;;;;;;7.07;5.55;;;;;;;;;;5019995;28;20111;-59
2021/06/24 17:13:39;;;;;;;10.57;5.20;;;;;;;;;;5022047;28;20057;-59
2021/06/24 17:16:06;;;;;;;9.50;5.28;;;;;;;;;;5018561;28;20046;-59
2021/06/24 17:18:33;;;;;;;11.38;5.22;;;;;;;;;;5017356;28;20046;-59
2021/06/24 17:21:00;;;;;;;8.90;5.05;;;;;;;;;;5025563;28;20087;-59
2021/06/24 17:23:27;;;;;;;8.90;5.22;;;;;;;;;;5024173;28;20057;-59
2021/06/24 17:25:54;;;;;;;9.60;4.60;;;;;;;;;;5022051;28;20077;-59
2021/06/24 17:28:20;;;;;;;10.32;5.38;;;;;;;;;;5028112;28;20235;-59
2021/06/24 17:30:47;;;;;;;9.93;5.40;;;;;;;;;;5026361;28;20068;-59
2021/06/24 17:33:15;;;;;;;7.70;5.57;;;;;;;;;;5018723;28;20049;-61
2021/06/24 17:35:43;;;;;;;9.27;5.10;;;;;;;;;;5052174;28;20037;-59
2021/06/24 17:38:11;;;;;;;9.73;4.82;;;;;;;;;;5025701;28;20418;-59
2021/06/24 17:40:38;;;;;;;11.07;5.50;;;;;;;;;;5020728;28;20046;-59
2021/06/24 17:43:04;;;;;;;10.02;5.57;;;;;;;;;;5022422;28;20049;-59
2021/06/24 17:45:31;;;;;;;17.20;5.90;;;;;;;;;;5024388;28;20058;-59
2021/06/24 17:47:58;;;;;;;10.20;5.20;;;;;;;;;;5026837;28;20508;-59
2021/06/24 17:50:27;;;;;;;8.05;5.25;;;;;;;;;;5017981;28;20117;-59
2021/06/24 17:52:55;;;;;;;10.05;5.15;;;;;;;;;;5021293;28;20049;-59
2021/06/24 17:55:22;;;;;;;8.13;5.40;;;;;;;;;;5023408;28;20049;-59
2021/06/24 17:57:51;;;;;;;10.23;5.85;;;;;;;;;;5015623;28;20516;-59
2021/06/24 18:00:19;;;;;;;11.60;5.90;;;;;;;;;;5019344;28;20071;-59
2021/06/24 18:02:45;;;;;;;8.50;5.43;;;;;;;;;;5026716;28;20041;-59
2021/06/24 18:05:13;;;;;;;11.95;5.50;;;;;;;;;;5023142;28;20116;-59
2021/06/24 18:07:40;;;;;;;7.30;5.80;;;;;;;;;;5019186;28;20534;-59
2021/06/24 18:10:07;;;;;;;11.48;5.60;;;;;;;;;;5021752;28;20080;-59
2021/06/24 18:12:34;;;;;;;9.20;5.20;;;;;;;;;;5025404;28;20068;-59
2021/06/24 18:15:01;;;;;;;14.77;5.63;;;;;;;;;;5020499;28;20037;-60
2021/06/24 18:17:28;;;;;;;;;;;;;;;;;;5021072;28;20041;-59
2021/06/24 18:19:55;;;;;;;10.50;5.50;;;;;;;;;;5017165;28;19933;-59
2021/06/24 18:22:21;;;;;;;10.90;5.00;;;;;;;;;;5022213;28;20092;-59
2021/06/24 18:24:49;;;;;;;9.63;5.13;;;;;;;;;;5016177;28;20049;-59
2021/06/24 18:27:17;;;;;;;8.93;5.25;;;;;;;;;;5020230;28;20049;-59
2021/06/24 18:29:43;;;;;;;14.67;5.17;;;;;;;;;;5020315;28;20049;-59
2021/06/24 18:32:11;;;;;;;8.23;5.05;;;;;;;;;;5024500;28;20041;-59
2021/06/24 18:34:40;;;;;;;8.40;5.40;;;;;;;;;;5019307;28;20051;-59
2021/06/24 18:37:07;;;;;;;8.65;5.22;;;;;;;;;;5017777;28;20559;-59
2021/06/24 18:39:33;;;;;;;9.07;5.50;;;;;;;;;;5022374;28;20512;-59
2021/06/24 18:42:00;;;;;;;9.40;5.90;;;;;;;;;;5021377;28;20067;-59
2021/06/24 18:44:26;;;;;;;8.03;5.80;;;;;;;;;;5023282;28;20045;-59
2021/06/24 18:46:53;;;;;;;8.70;6.00;;;;;;;;;;5026217;28;20045;-59
2021/06/24 18:49:25;;;;;;;11.73;6.50;;;;;;;;;;5020797;28;20047;-59
2021/06/24 18:51:52;;;;;;;8.02;6.32;;;;;;;;;;5023299;28;20634;-59
2021/06/24 18:54:19;;;;;;;15.38;7.05;;;;;;;;;;5018343;28;20416;-59
2021/06/24 18:56:45;;;;;;;15.65;7.25;;;;;;;;;;5023657;28;20099;-59
2021/06/24 18:59:12;;;;;;;13.00;7.13;;;;;;;;;;5018226;28;20527;-59
2021/06/24 19:01:39;;;;;;;9.10;7.20;;;;;;;;;;5021100;28;20050;-59
2021/06/24 19:04:06;;;;;;;13.25;7.25;;;;;;;;;;5023659;28;20050;-59
2021/06/24 19:06:33;;;;;;;11.93;6.93;;;;;;;;;;5016429;28;20061;-59
2021/06/24 19:09:00;;;;;;;13.80;7.93;;;;;;;;;;5019624;28;20041;-59
2021/06/24 19:11:28;;;;;;;16.08;7.95;;;;;;;;;;5017187;28;20037;-59
2021/06/24 19:13:54;;;;;;;14.68;8.10;;;;;;;;;;5024955;28;20041;-59
2021/06/24 19:16:22;;;;;;;;;;;;;;;;;;5018673;28;20049;-59
2021/06/24 19:18:49;;;;;;;12.00;7.72;;;;;;;;;;5017481;28;19975;-59
2021/06/24 19:21:16;;;;;;;20.75;9.43;;;;;;;;;;5026449;28;20520;-59
2021/06/24 19:23:43;;;;;;;14.17;8.47;;;;;;;;;;5025559;28;20111;-59
2021/06/24 19:26:12;;;;;;;14.07;8.02;;;;;;;;;;5021027;28;20292;-59
2021/06/24 19:28:39;;;;;;;17.40;8.48;;;;;;;;;;5019534;28;20046;-59
2021/06/24 19:31:07;;;;;;;12.07;8.68;;;;;;;;;;5017567;28;20053;-59
2021/06/24 19:33:37;;;;;;;17.35;8.18;;;;;;;;;;5018037;28;20044;-59
2021/06/24 19:36:04;;;;;;;13.57;8.43;;;;;;;;;;5019718;28;20070;-59
2021/06/24 19:38:31;;;;;;;16.58;8.95;;;;;;;;;;5023306;28;20064;-59
2021/06/24 19:41:00;;;;;;;12.05;8.18;;;;;;;;;;5024818;28;20576;-59
2021/06/24 19:43:28;;;;;;;17.48;9.15;;;;;;;;;;5020523;28;20046;-59
2021/06/24 19:45:55;;;;;;;13.07;8.52;;;;;;;;;;5024842;28;20509;-59
2021/06/24 19:48:22;;;;;;;18.67;8.55;;;;;;;;;;5021844;28;20125;-59
2021/06/24 19:50:49;;;;;;;14.75;9.13;;;;;;;;;;5018812;28;20631;-59
2021/06/24 19:53:15;;;;;;;21.03;9.90;;;;;;;;;;5019846;28;20041;-59
2021/06/24 19:55:42;;;;;;;14.90;9.40;;;;;;;;;;5019196;28;20049;-59
2021/06/24 19:58:09;;;;;;;19.23;9.57;;;;;;;;;;5021254;28;20073;-59
2021/06/24 20:00:39;;;;;;;20.33;9.68;;;;;;;;;;5020029;28;20049;-59
2021/06/24 20:03:08;;;;;;;17.02;9.55;;;;;;;;;;5019616;28;20112;-59
2021/06/24 20:05:35;;;;;;;17.47;9.27;;;;;;;;;;5021717;28;20050;-59
2021/06/24 20:08:02;;;;;;;16.02;9.65;;;;;;;;;;5019371;28;20116;-59
2021/06/24 20:10:29;;;;;;;;;;;;;;;;;;5017083;28;20046;-59
2021/06/24 20:12:56;;;;;;;18.48;10.40;;;;;;;;;;5022648;28;20446;-59
2021/06/24 20:15:23;;;;;;;18.55;10.20;;;;;;;;;;5025551;28;20050;-59
2021/06/24 20:17:51;;;;;;;16.80;10.25;;;;;;;;;;5022779;28;20662;-59
2021/06/24 20:20:19;;;;;;;16.55;9.95;;;;;;;;;;5015312;28;20501;-59
2021/06/24 20:22:46;;;;;;;20.15;10.32;;;;;;;;;;5019809;28;20049;-59
2021/06/24 20:25:14;;;;;;;21.50;10.53;;;;;;;;;;5021151;28;20069;-59
2021/06/24 20:27:41;;;;;;;16.38;9.95;;;;;;;;;;5024681;28;20125;-59
2021/06/24 20:30:10;;;;;;;14.27;10.38;;;;;;;;;;5025732;28;20045;-59
2021/06/24 20:32:37;;;;;;;16.92;10.70;;;;;;;;;;5020749;28;20497;-59
2021/06/24 20:35:04;;;;;;;19.23;10.70;;;;;;;;;;5021706;28;20052;-59
2021/06/24 21:31:36;;;;;;;17.70;12.57;;;;;;;;;;5046349;28;20191;-60
2021/06/24 21:34:03;;;;;;;20.13;11.75;;;;;;;;;;5044905;28;20038;-60
2021/06/24 21:36:29;;;;;;;19.73;12.15;;;;;;;;;;5047351;28;20041;-60
2021/06/24 21:38:57;;;;;;;16.75;11.68;;;;;;;;;;5051805;28;20075;-60
2021/06/24 21:41:23;;;;;;;16.85;11.13;;;;;;;;;;5043852;28;20120;-60
2021/06/24 21:43:51;;;;;;;19.83;10.93;;;;;;;;;;5020007;28;20049;-60
2021/06/24 21:46:17;;;;;;;17.77;11.23;;;;;;;;;;5017769;28;20064;-60
2021/06/24 21:48:50;;;;;;;22.40;10.73;;;;;;;;;;5019021;28;20045;-60
2021/06/24 21:51:16;;;;;;;19.33;11.57;;;;;;;;;;5017200;28;20034;-60
2021/06/24 21:53:43;;;;;;;20.63;12.00;;;;;;;;;;5018908;28;20076;-60
2021/06/24 21:56:09;;;;;;;30.47;15.30;;;;;;;;;;5017956;28;20053;-60
2021/06/24 21:58:37;;;;;;;26.27;15.27;;;;;;;;;;5020029;28;20047;-60
2021/06/24 22:01:03;;;;;;;22.80;12.40;;;;;;;;;;5010805;28;20046;-60
2021/06/24 22:03:30;;;;;;;21.77;10.67;;;;;;;;;;5018323;28;20576;-60
2021/06/24 22:05:57;;;;;;;34.90;12.73;;;;;;;;;;5016565;28;20049;-60
2021/06/24 22:08:23;;;;;;;22.77;11.02;;;;;;;;;;5016516;28;20830;-60
2021/06/24 22:22:36;;;;;;;17.13;9.93;;;;;;;;;;5109697;27;20363;-60
2021/06/24 22:25:04;;;;;;;19.20;10.20;;;;;;;;;;5088365;28;20044;-60
2021/06/24 22:27:30;;;;;;;15.83;10.10;;;;;;;;;;5089388;28;20070;-60
2021/06/24 22:29:57;;;;;;;18.10;10.25;;;;;;;;;;5092025;28;20316;-60
2021/06/24 22:32:25;;;;;;;16.88;10.15;;;;;;;;;;5082771;28;20040;-60
2021/06/24 22:34:52;;;;;;;17.33;10.67;;;;;;;;;;5095228;28;20071;-60
2021/06/24 22:37:18;;;;;;;17.45;10.23;;;;;;;;;;5096268;28;20301;-60
2021/06/24 22:39:47;;;;;;;15.35;9.38;;;;;;;;;;5091589;28;20093;-60
2021/06/24 22:42:13;;;;;;;14.85;9.88;;;;;;;;;;5087166;28;20044;-60
2021/06/24 22:44:40;;;;;;;19.05;10.68;;;;;;;;;;5072202;28;20037;-60
2021/06/24 22:47:07;;;;;;;18.50;10.40;;;;;;;;;;5071119;28;20415;-60
2021/06/24 22:49:34;;;;;;;18.65;9.70;;;;;;;;;;5067602;28;20569;-60
2021/06/24 22:52:00;;;;;;;22.42;10.00;;;;;;;;;;5068539;28;20387;-60
2021/06/24 22:54:27;;;;;;;17.43;10.20;;;;;;;;;;5073579;28;20044;-60
2021/06/24 22:56:53;;;;;;;18.63;10.07;;;;;;;;;;5068700;28;20143;-60
2021/06/24 22:59:20;;;;;;;16.85;10.07;;;;;;;;;;5058789;28;20052;-60
2021/06/24 23:01:49;;;;;;;16.90;9.38;;;;;;;;;;5064741;28;20044;-61
2021/06/24 23:04:16;;;;;;;15.40;10.07;;;;;;;;;;5061968;28;20072;-60